createdAt,value
2018-01-15T00:00:25.185Z,1007.29
2018-01-15T00:01:25.177Z,1007.27
2018-01-15T00:02:25.169Z,1007.27
2018-01-15T00:03:25.161Z,1007.20
2018-01-15T00:04:25.147Z,1007.18
2018-01-15T00:05:25.138Z,1007.11
2018-01-15T00:06:25.128Z,1007.14
2018-01-15T00:07:25.117Z,1007.11
2018-01-15T00:08:25.109Z,1007.07
2018-01-15T00:09:25.099Z,1007.07
2018-01-15T00:10:25.090Z,1007.03
2018-01-15T00:11:25.081Z,1007.00
2018-01-15T00:12:25.069Z,1007.01
2018-01-15T00:13:25.060Z,1007.01
2018-01-15T00:14:25.052Z,1006.99
2018-01-15T00:15:25.040Z,1006.98
2018-01-15T00:16:25.031Z,1007.00
2018-01-15T00:17:25.022Z,1006.96
2018-01-15T00:18:25.013Z,1006.92
2018-01-15T00:19:25.005Z,1006.85
2018-01-15T00:20:24.991Z,1006.85
2018-01-15T00:21:24.983Z,1006.80
2018-01-15T00:22:24.972Z,1006.76
2018-01-15T00:23:24.962Z,1006.78
2018-01-15T00:24:24.953Z,1006.75
2018-01-15T00:25:24.950Z,1006.78
2018-01-15T00:26:24.939Z,1006.75
2018-01-15T00:27:24.923Z,1006.75
2018-01-15T00:28:24.915Z,1006.76
2018-01-15T00:29:24.906Z,1006.73
2018-01-15T00:30:24.896Z,1006.76
2018-01-15T00:31:24.887Z,1006.75
2018-01-15T00:32:24.876Z,1006.70
2018-01-15T00:33:24.866Z,1006.70
2018-01-15T00:34:24.860Z,1006.70
2018-01-15T00:35:24.847Z,1006.63
2018-01-15T00:36:24.837Z,1006.63
2018-01-15T00:37:24.826Z,1006.54
2018-01-15T00:38:24.817Z,1006.54
2018-01-15T00:39:24.807Z,1006.55
2018-01-15T00:40:24.797Z,1006.52
2018-01-15T00:41:24.787Z,1006.49
2018-01-15T00:42:24.780Z,1006.49
2018-01-15T00:43:24.768Z,1006.44
2018-01-15T00:44:24.758Z,1006.46
2018-01-15T00:45:24.751Z,1006.47
2018-01-15T00:46:24.741Z,1006.51
2018-01-15T00:47:24.728Z,1006.45
2018-01-15T00:48:24.718Z,1006.43
2018-01-15T00:49:24.709Z,1006.46
2018-01-15T00:50:24.700Z,1006.41
2018-01-15T00:51:24.690Z,1006.43
2018-01-15T00:52:24.681Z,1006.43
2018-01-15T00:53:24.669Z,1006.43
2018-01-15T00:54:24.662Z,1006.44
2018-01-15T00:55:24.649Z,1006.44
2018-01-15T00:56:24.641Z,1006.42
2018-01-15T00:57:24.630Z,1006.44
2018-01-15T00:58:24.624Z,1006.42
2018-01-15T00:59:24.612Z,1006.43
2018-01-15T01:00:24.600Z,1006.44
2018-01-15T01:01:24.591Z,1006.37
2018-01-15T01:02:24.582Z,1006.38
2018-01-15T01:03:24.570Z,1006.35
2018-01-15T01:04:24.562Z,1006.36
2018-01-15T01:05:24.551Z,1006.31
2018-01-15T01:06:24.543Z,1006.34
2018-01-15T01:07:24.532Z,1006.31
2018-01-15T01:08:24.521Z,1006.27
2018-01-15T01:09:24.529Z,1006.25
2018-01-15T01:10:24.504Z,1006.27
2018-01-15T01:11:24.492Z,1006.27
2018-01-15T01:12:24.484Z,1006.28
2018-01-15T01:13:24.474Z,1006.27
2018-01-15T01:14:24.464Z,1006.31
2018-01-15T01:15:24.454Z,1006.28
2018-01-15T01:16:24.444Z,1006.28
2018-01-15T01:17:24.440Z,1006.26
2018-01-15T01:18:24.425Z,1006.24
2018-01-15T01:19:24.415Z,1006.19
2018-01-15T01:20:24.405Z,1006.15
2018-01-15T01:21:24.395Z,1006.16
2018-01-15T01:22:24.385Z,1006.09
2018-01-15T01:23:24.375Z,1006.10
2018-01-15T01:24:24.365Z,1006.06
2018-01-15T01:25:24.359Z,1006.09
2018-01-15T01:26:24.346Z,1006.02
2018-01-15T01:27:24.337Z,1005.98
2018-01-15T01:28:24.328Z,1006.00
2018-01-15T01:29:24.317Z,1005.93
2018-01-15T01:30:24.309Z,1005.94
2018-01-15T01:31:24.299Z,1005.93
2018-01-15T01:32:24.288Z,1005.89
2018-01-15T01:33:24.280Z,1005.89
2018-01-15T01:34:24.269Z,1005.92
2018-01-15T01:35:24.260Z,1005.94
2018-01-15T01:36:24.251Z,1005.91
2018-01-15T01:37:24.242Z,1005.94
2018-01-15T01:38:24.233Z,1005.94
2018-01-15T01:39:24.221Z,1005.89
2018-01-15T01:40:24.212Z,1005.86
2018-01-15T01:41:24.204Z,1005.93
2018-01-15T01:42:24.194Z,1005.89
2018-01-15T01:43:24.183Z,1005.91
2018-01-15T01:44:24.176Z,1005.93
2018-01-15T01:45:24.164Z,1005.91
2018-01-15T01:46:24.158Z,1005.92
2018-01-15T01:47:24.147Z,1005.88
2018-01-15T01:48:24.138Z,1005.88
2018-01-15T01:49:24.129Z,1005.84
2018-01-15T01:50:24.120Z,1005.78
2018-01-15T01:51:24.109Z,1005.73
2018-01-15T01:52:24.102Z,1005.71
2018-01-15T01:53:24.090Z,1005.71
2018-01-15T01:54:24.083Z,1005.70
2018-01-15T01:55:24.073Z,1005.74
2018-01-15T01:56:24.063Z,1005.71
2018-01-15T01:57:24.055Z,1005.72
2018-01-15T01:58:24.046Z,1005.71
2018-01-15T01:59:24.034Z,1005.71
2018-01-15T02:00:24.026Z,1005.66
2018-01-15T02:01:24.017Z,1005.65
2018-01-15T02:02:24.009Z,1005.61
2018-01-15T02:03:23.999Z,1005.56
2018-01-15T02:04:23.990Z,1005.58
2018-01-15T02:05:23.981Z,1005.57
2018-01-15T02:06:23.972Z,1005.57
2018-01-15T02:07:23.961Z,1005.61
2018-01-15T02:08:23.953Z,1005.60
2018-01-15T02:09:23.943Z,1005.61
2018-01-15T02:10:23.935Z,1005.58
2018-01-15T02:11:23.926Z,1005.62
2018-01-15T02:12:23.914Z,1005.59
2018-01-15T02:13:23.907Z,1005.58
2018-01-15T02:14:23.896Z,1005.53
2018-01-15T02:15:23.887Z,1005.55
2018-01-15T02:16:23.879Z,1005.54
2018-01-15T02:17:23.869Z,1005.52
2018-01-15T02:18:23.861Z,1005.48
2018-01-15T02:19:23.849Z,1005.45
2018-01-15T02:20:23.840Z,1005.44
2018-01-15T02:21:23.832Z,1005.42
2018-01-15T02:22:23.822Z,1005.39
2018-01-15T02:23:23.814Z,1005.35
2018-01-15T02:24:23.803Z,1005.34
2018-01-15T02:25:23.795Z,1005.30
2018-01-15T02:26:23.786Z,1005.30
2018-01-15T02:27:23.778Z,1005.27
2018-01-15T02:28:23.769Z,1005.27
2018-01-15T02:29:23.758Z,1005.25
2018-01-15T02:30:23.750Z,1005.28
2018-01-15T02:31:23.742Z,1005.27
2018-01-15T02:32:23.729Z,1005.22
2018-01-15T02:33:23.720Z,1005.26
2018-01-15T02:34:23.711Z,1005.23
2018-01-15T02:35:23.702Z,1005.23
2018-01-15T02:36:23.692Z,1005.23
2018-01-15T02:37:23.688Z,1005.19
2018-01-15T02:38:23.677Z,1005.21
2018-01-15T02:39:23.663Z,1005.17
2018-01-15T02:40:23.657Z,1005.17
2018-01-15T02:41:23.648Z,1005.17
2018-01-15T02:42:23.641Z,1005.15
2018-01-15T02:43:23.636Z,1005.15
2018-01-15T02:44:23.620Z,1005.09
2018-01-15T02:45:23.610Z,1005.09
2018-01-15T02:46:23.601Z,1005.05
2018-01-15T02:47:23.592Z,1005.02
2018-01-15T02:48:23.583Z,1005.02
2018-01-15T02:49:23.575Z,1004.98
2018-01-15T02:50:23.566Z,1004.94
2018-01-15T02:51:23.555Z,1004.94
2018-01-15T02:52:23.547Z,1004.90
2018-01-15T02:53:23.537Z,1004.86
2018-01-15T02:54:23.529Z,1004.85
2018-01-15T02:55:23.519Z,1004.85
2018-01-15T02:56:23.511Z,1004.85
2018-01-15T02:57:23.501Z,1004.83
2018-01-15T02:58:23.493Z,1004.83
2018-01-15T02:59:23.483Z,1004.81
2018-01-15T03:00:23.474Z,1004.80
2018-01-15T03:01:23.465Z,1004.81
2018-01-15T03:02:23.457Z,1004.80
2018-01-15T03:03:23.451Z,1004.79
2018-01-15T03:04:23.439Z,1004.74
2018-01-15T03:05:23.579Z,1004.71
2018-01-15T03:06:23.419Z,1004.76
2018-01-15T03:07:23.411Z,1004.76
2018-01-15T03:08:23.402Z,1004.73
2018-01-15T03:09:23.393Z,1004.76
2018-01-15T03:10:23.383Z,1004.73
2018-01-15T03:11:23.374Z,1004.72
2018-01-15T03:12:23.365Z,1004.67
2018-01-15T03:13:23.357Z,1004.66
2018-01-15T03:14:23.349Z,1004.60
2018-01-15T03:15:23.340Z,1004.59
2018-01-15T03:16:23.331Z,1004.52
2018-01-15T03:17:23.320Z,1004.51
2018-01-15T03:18:23.312Z,1004.48
2018-01-15T03:19:23.302Z,1004.44
2018-01-15T03:20:23.294Z,1004.46
2018-01-15T03:21:23.284Z,1004.45
2018-01-15T03:22:23.276Z,1004.46
2018-01-15T03:23:23.266Z,1004.38
2018-01-15T03:24:23.258Z,1004.39
2018-01-15T03:25:23.248Z,1004.37
2018-01-15T03:26:23.242Z,1004.33
2018-01-15T03:27:23.231Z,1004.31
2018-01-15T03:28:23.221Z,1004.30
2018-01-15T03:29:23.214Z,1004.29
2018-01-15T03:30:23.205Z,1004.24
2018-01-15T03:31:23.199Z,1004.26
2018-01-15T03:32:23.190Z,1004.21
2018-01-15T03:33:23.177Z,1004.27
2018-01-15T03:34:23.168Z,1004.23
2018-01-15T03:35:23.160Z,1004.25
2018-01-15T03:36:23.150Z,1004.19
2018-01-15T03:37:23.142Z,1004.21
2018-01-15T03:38:23.133Z,1004.14
2018-01-15T03:39:23.122Z,1004.17
2018-01-15T03:40:23.114Z,1004.14
2018-01-15T03:41:23.104Z,1004.09
2018-01-15T03:42:23.097Z,1004.07
2018-01-15T03:43:23.087Z,1004.03
2018-01-15T03:44:23.078Z,1004.09
2018-01-15T03:45:23.068Z,1004.03
2018-01-15T03:46:23.060Z,1003.98
2018-01-15T03:47:23.055Z,1003.98
2018-01-15T03:48:23.042Z,1003.97
2018-01-15T03:49:23.034Z,1003.95
2018-01-15T03:50:23.031Z,1003.91
2018-01-15T03:51:23.015Z,1003.87
2018-01-15T03:52:23.005Z,1003.88
2018-01-15T03:53:23.000Z,1003.90
2018-01-15T03:54:22.991Z,1003.85
2018-01-15T03:55:22.978Z,1003.86
2018-01-15T03:56:22.969Z,1003.81
2018-01-15T03:57:22.962Z,1003.85
2018-01-15T03:58:22.952Z,1003.88
2018-01-15T03:59:22.940Z,1003.87
2018-01-15T04:00:22.933Z,1003.84
2018-01-15T04:01:22.925Z,1003.86
2018-01-15T04:02:22.916Z,1003.80
2018-01-15T04:03:22.907Z,1003.77
2018-01-15T04:04:22.897Z,1003.75
2018-01-15T04:05:22.889Z,1003.75
2018-01-15T04:06:22.880Z,1003.73
2018-01-15T04:07:22.870Z,1003.69
2018-01-15T04:08:22.860Z,1003.65
2018-01-15T04:09:22.851Z,1003.61
2018-01-15T04:10:22.843Z,1003.57
2018-01-15T04:11:22.831Z,1003.57
2018-01-15T04:12:22.828Z,1003.53
2018-01-15T04:13:22.814Z,1003.49
2018-01-15T04:14:22.805Z,1003.49
2018-01-15T04:15:22.795Z,1003.49
2018-01-15T04:16:22.786Z,1003.50
2018-01-15T04:17:22.778Z,1003.49
2018-01-15T04:18:22.769Z,1003.46
2018-01-15T04:19:22.763Z,1003.50
2018-01-15T04:20:22.750Z,1003.46
2018-01-15T04:21:22.741Z,1003.40
2018-01-15T04:22:22.733Z,1003.37
2018-01-15T04:23:22.723Z,1003.37
2018-01-15T04:24:22.714Z,1003.30
2018-01-15T04:25:22.704Z,1003.33
2018-01-15T04:26:22.698Z,1003.34
2018-01-15T04:27:22.688Z,1003.33
2018-01-15T04:28:22.678Z,1003.35
2018-01-15T04:29:22.674Z,1003.30
2018-01-15T04:30:22.660Z,1003.27
2018-01-15T04:31:22.650Z,1003.28
2018-01-15T04:32:22.643Z,1003.25
2018-01-15T04:33:22.633Z,1003.27
2018-01-15T04:34:22.625Z,1003.24
2018-01-15T04:35:22.614Z,1003.20
2018-01-15T04:36:22.606Z,1003.19
2018-01-15T04:37:22.597Z,1003.14
2018-01-15T04:38:22.589Z,1003.12
2018-01-15T04:39:22.579Z,1003.09
2018-01-15T04:40:22.574Z,1003.12
2018-01-15T04:41:22.564Z,1003.10
2018-01-15T04:42:22.553Z,1003.13
2018-01-15T04:43:22.543Z,1003.08
2018-01-15T04:44:22.533Z,1003.06
2018-01-15T04:45:22.526Z,1003.04
2018-01-15T04:46:22.517Z,1003.00
2018-01-15T04:47:22.508Z,1003.02
2018-01-15T04:48:22.501Z,1002.99
2018-01-15T04:49:22.490Z,1003.00
2018-01-15T04:50:22.482Z,1002.94
2018-01-15T04:51:22.472Z,1002.94
2018-01-15T04:52:22.462Z,1002.91
2018-01-15T04:53:22.455Z,1002.96
2018-01-15T04:54:22.445Z,1002.89
2018-01-15T04:55:22.436Z,1002.90
2018-01-15T04:56:22.433Z,1002.91
2018-01-15T04:57:22.420Z,1002.84
2018-01-15T04:58:22.413Z,1002.84
2018-01-15T04:59:22.404Z,1002.80
2018-01-15T05:00:22.397Z,1002.78
2018-01-15T05:01:22.386Z,1002.72
2018-01-15T05:02:22.374Z,1002.74
2018-01-15T05:03:22.366Z,1002.72
2018-01-15T05:04:22.356Z,1002.67
2018-01-15T05:05:22.347Z,1002.68
2018-01-15T05:06:22.339Z,1002.71
2018-01-15T05:07:22.329Z,1002.69
2018-01-15T05:08:22.319Z,1002.66
2018-01-15T05:09:22.316Z,1002.65
2018-01-15T05:10:22.305Z,1002.67
2018-01-15T05:11:22.293Z,1002.65
2018-01-15T05:12:22.285Z,1002.65
2018-01-15T05:13:22.277Z,1002.58
2018-01-15T05:14:22.267Z,1002.60
2018-01-15T05:15:22.305Z,1002.60
2018-01-15T05:16:22.250Z,1002.62
2018-01-15T05:17:22.242Z,1002.63
2018-01-15T05:18:22.233Z,1002.60
2018-01-15T05:19:22.223Z,1002.58
2018-01-15T05:20:22.215Z,1002.53
2018-01-15T05:21:22.206Z,1002.57
2018-01-15T05:22:22.198Z,1002.52
2018-01-15T05:23:22.188Z,1002.48
2018-01-15T05:24:22.178Z,1002.44
2018-01-15T05:25:22.171Z,1002.47
2018-01-15T05:26:22.161Z,1002.48
2018-01-15T05:27:22.189Z,1002.45
2018-01-15T05:28:22.144Z,1002.44
2018-01-15T05:29:22.136Z,1002.42
2018-01-15T05:30:22.128Z,1002.41
2018-01-15T05:31:22.117Z,1002.37
2018-01-15T05:32:22.108Z,1002.40
2018-01-15T05:33:22.099Z,1002.37
2018-01-15T05:34:22.093Z,1002.34
2018-01-15T05:35:22.083Z,1002.33
2018-01-15T05:36:22.074Z,1002.31
2018-01-15T05:37:22.069Z,1002.22
2018-01-15T05:38:22.061Z,1002.24
2018-01-15T05:39:22.049Z,1002.24
2018-01-15T05:40:22.040Z,1002.19
2018-01-15T05:41:22.031Z,1002.16
2018-01-15T05:42:22.023Z,1002.20
2018-01-15T05:43:22.014Z,1002.14
2018-01-15T05:44:22.006Z,1002.12
2018-01-15T05:45:21.996Z,1002.14
2018-01-15T05:46:22.033Z,1002.15
2018-01-15T05:47:21.979Z,1002.09
2018-01-15T05:50:21.952Z,1002.09
2018-01-15T05:51:21.943Z,1002.06
2018-01-15T05:52:21.935Z,1002.03
2018-01-15T05:53:21.928Z,1002.00
2018-01-15T05:54:21.919Z,1002.05
2018-01-15T05:55:21.910Z,1001.99
2018-01-15T05:56:21.901Z,1001.96
2018-01-15T05:57:21.893Z,1001.95
2018-01-15T05:58:21.940Z,1001.87
2018-01-15T05:59:21.875Z,1001.88
2018-01-15T06:00:21.866Z,1001.84
2018-01-15T06:01:21.858Z,1001.83
2018-01-15T06:02:21.849Z,1001.80
2018-01-15T06:03:21.842Z,1001.81
2018-01-15T06:04:21.832Z,1001.77
2018-01-15T06:05:21.824Z,1001.75
2018-01-15T06:06:21.816Z,1001.71
2018-01-15T06:07:21.810Z,1001.71
2018-01-15T06:08:21.799Z,1001.73
2018-01-15T06:09:21.792Z,1001.72
2018-01-15T06:10:21.783Z,1001.69
2018-01-15T06:11:21.777Z,1001.68
2018-01-15T06:12:21.766Z,1001.69
2018-01-15T06:13:21.757Z,1001.67
2018-01-15T06:14:21.751Z,1001.67
2018-01-15T06:15:21.741Z,1001.67
2018-01-15T06:16:21.734Z,1001.63
2018-01-15T06:17:21.725Z,1001.64
2018-01-15T06:18:21.717Z,1001.63
2018-01-15T06:19:21.707Z,1001.63
2018-01-15T06:20:21.699Z,1001.60
2018-01-15T06:21:21.691Z,1001.63
2018-01-15T06:22:21.683Z,1001.57
2018-01-15T06:23:21.674Z,1001.53
2018-01-15T06:24:21.666Z,1001.51
2018-01-15T06:25:21.658Z,1001.50
2018-01-15T06:26:21.651Z,1001.46
2018-01-15T06:27:21.642Z,1001.45
2018-01-15T06:28:21.633Z,1001.44
2018-01-15T06:29:21.626Z,1001.43
2018-01-15T06:30:21.626Z,1001.41
2018-01-15T06:31:21.610Z,1001.38
2018-01-15T06:32:21.600Z,1001.44
2018-01-15T06:33:21.593Z,1001.40
2018-01-15T06:34:21.585Z,1001.43
2018-01-15T06:35:21.575Z,1001.39
2018-01-15T06:36:21.569Z,1001.40
2018-01-15T06:37:21.565Z,1001.35
2018-01-15T06:38:21.553Z,1001.37
2018-01-15T06:39:21.544Z,1001.31
2018-01-15T06:40:21.537Z,1001.34
2018-01-15T06:41:21.527Z,1001.29
2018-01-15T06:42:21.521Z,1001.28
2018-01-15T06:43:21.512Z,1001.24
2018-01-15T06:44:21.505Z,1001.27
2018-01-15T06:45:21.496Z,1001.24
2018-01-15T06:46:21.489Z,1001.20
2018-01-15T06:47:21.481Z,1001.15
2018-01-15T06:48:21.472Z,1001.13
2018-01-15T06:49:21.465Z,1001.10
2018-01-15T06:50:21.458Z,1001.07
2018-01-15T06:51:21.449Z,1001.03
2018-01-15T06:52:21.441Z,1001.02
2018-01-15T06:53:21.433Z,1000.99
2018-01-15T06:54:21.425Z,1000.99
2018-01-15T06:55:21.416Z,1000.95
2018-01-15T06:56:21.408Z,1000.92
2018-01-15T06:57:21.401Z,1000.91
2018-01-15T06:58:21.394Z,1000.93
2018-01-15T06:59:21.384Z,1000.93
2018-01-15T07:00:21.377Z,1000.96
2018-01-15T07:01:21.369Z,1000.94
2018-01-15T07:02:21.363Z,1000.95
2018-01-15T07:03:21.353Z,1000.94
2018-01-15T07:04:21.345Z,1000.94
2018-01-15T07:05:21.339Z,1000.88
2018-01-15T07:06:21.331Z,1000.89
2018-01-15T07:07:21.322Z,1000.86
2018-01-15T07:08:21.315Z,1000.83
2018-01-15T07:09:21.306Z,1000.83
2018-01-15T07:10:21.299Z,1000.79
2018-01-15T07:11:21.289Z,1000.84
2018-01-15T07:12:21.281Z,1000.78
2018-01-15T07:13:21.274Z,1000.77
2018-01-15T07:14:21.266Z,1000.78
2018-01-15T07:15:21.258Z,1000.78
2018-01-15T07:16:21.250Z,1000.75
2018-01-15T07:17:21.243Z,1000.75
2018-01-15T07:18:21.236Z,1000.76
2018-01-15T07:19:21.228Z,1000.75
2018-01-15T07:20:21.220Z,1000.70
2018-01-15T07:21:21.215Z,1000.74
2018-01-15T07:22:21.206Z,1000.68
2018-01-15T07:23:21.198Z,1000.70
2018-01-15T07:24:21.190Z,1000.70
2018-01-15T07:25:21.181Z,1000.68
2018-01-15T07:26:21.173Z,1000.71
2018-01-15T07:27:21.164Z,1000.70
2018-01-15T07:28:21.156Z,1000.76
2018-01-15T07:29:21.150Z,1000.73
2018-01-15T07:30:21.141Z,1000.71
2018-01-15T07:31:21.134Z,1000.67
2018-01-15T07:32:21.132Z,1000.67
2018-01-15T07:33:21.118Z,1000.64
2018-01-15T07:34:21.111Z,1000.61
2018-01-15T07:35:21.102Z,1000.59
2018-01-15T07:36:21.094Z,1000.60
2018-01-15T07:37:21.087Z,1000.57
2018-01-15T07:38:21.080Z,1000.52
2018-01-15T07:39:21.071Z,1000.52
2018-01-15T07:40:21.063Z,1000.53
2018-01-15T07:41:21.057Z,1000.53
2018-01-15T07:42:21.049Z,1000.49
2018-01-15T07:43:21.040Z,1000.45
2018-01-15T07:44:21.033Z,1000.46
2018-01-15T07:45:21.025Z,1000.38
2018-01-15T07:46:21.017Z,1000.41
2018-01-15T07:47:21.010Z,1000.36
2018-01-15T07:48:21.001Z,1000.37
2018-01-15T07:49:20.995Z,1000.33
2018-01-15T07:50:20.988Z,1000.30
2018-01-15T07:51:20.980Z,1000.26
2018-01-15T07:52:20.973Z,1000.21
2018-01-15T07:53:20.965Z,1000.21
2018-01-15T07:54:20.957Z,1000.23
2018-01-15T07:55:20.949Z,1000.25
2018-01-15T07:56:20.945Z,1000.21
2018-01-15T07:57:20.935Z,1000.25
2018-01-15T07:58:20.926Z,1000.22
2018-01-15T07:59:20.918Z,1000.17
2018-01-15T08:00:20.911Z,1000.22
2018-01-15T08:01:20.903Z,1000.16
2018-01-15T08:02:20.896Z,1000.14
2018-01-15T08:03:20.888Z,1000.18
2018-01-15T08:04:20.881Z,1000.17
2018-01-15T08:05:20.873Z,1000.17
2018-01-15T08:06:20.866Z,1000.19
2018-01-15T08:07:20.858Z,1000.11
2018-01-15T08:08:20.851Z,1000.14
2018-01-15T08:09:20.844Z,1000.07
2018-01-15T08:10:20.836Z,1000.07
2018-01-15T08:11:20.828Z,1000.06
2018-01-15T08:12:20.821Z,1000.02
2018-01-15T08:13:20.815Z,999.99
2018-01-15T08:14:20.806Z,1000.03
2018-01-15T08:15:20.798Z,1000.02
2018-01-15T08:16:20.792Z,999.98
2018-01-15T08:17:20.785Z,999.92
2018-01-15T08:18:20.777Z,999.90
2018-01-15T08:19:20.769Z,999.92
2018-01-15T08:20:20.761Z,999.93
2018-01-15T08:21:20.755Z,999.90
2018-01-15T08:22:20.748Z,999.91
2018-01-15T08:23:20.738Z,999.90
2018-01-15T08:24:20.732Z,999.89
2018-01-15T08:25:20.725Z,999.87
2018-01-15T08:26:20.717Z,999.88
2018-01-15T08:27:20.711Z,999.90
2018-01-15T08:28:20.702Z,999.92
2018-01-15T08:29:20.695Z,999.90
2018-01-15T08:30:20.688Z,999.86
2018-01-15T08:31:20.680Z,999.90
2018-01-15T08:32:20.674Z,999.88
2018-01-15T08:33:20.666Z,999.87
2018-01-15T08:34:20.659Z,999.89
2018-01-15T08:35:20.652Z,999.86
2018-01-15T08:36:20.645Z,999.91
2018-01-15T08:37:20.637Z,999.89
2018-01-15T08:38:20.631Z,999.88
2018-01-15T08:39:20.623Z,999.93
2018-01-15T08:40:20.615Z,999.83
2018-01-15T08:41:20.608Z,999.80
2018-01-15T08:42:20.602Z,999.76
2018-01-15T08:43:20.594Z,999.73
2018-01-15T08:44:20.586Z,999.77
2018-01-15T08:45:20.582Z,999.68
2018-01-15T08:46:20.577Z,999.65
2018-01-15T08:47:20.565Z,999.64
2018-01-15T08:48:20.557Z,999.59
2018-01-15T08:49:20.551Z,999.59
2018-01-15T08:50:20.546Z,999.51
2018-01-15T08:51:20.536Z,999.51
2018-01-15T08:52:20.528Z,999.54
2018-01-15T08:53:20.522Z,999.48
2018-01-15T08:54:20.515Z,999.46
2018-01-15T08:55:20.508Z,999.43
2018-01-15T08:56:20.500Z,999.50
2018-01-15T08:57:20.493Z,999.52
2018-01-15T08:58:20.486Z,999.52
2018-01-15T08:59:20.479Z,999.52
2018-01-15T09:00:20.472Z,999.53
2018-01-15T09:01:20.466Z,999.56
2018-01-15T09:02:20.459Z,999.48
2018-01-15T09:03:20.451Z,999.44
2018-01-15T09:04:20.446Z,999.40
2018-01-15T09:05:20.437Z,999.39
2018-01-15T09:06:20.430Z,999.39
2018-01-15T09:07:20.424Z,999.29
2018-01-15T09:08:20.416Z,999.28
2018-01-15T09:09:20.409Z,999.27
2018-01-15T09:10:20.402Z,999.29
2018-01-15T09:11:20.395Z,999.20
2018-01-15T09:12:20.388Z,999.24
2018-01-15T09:13:20.383Z,999.22
2018-01-15T09:14:20.375Z,999.19
2018-01-15T09:15:20.368Z,999.17
2018-01-15T09:16:20.361Z,999.11
2018-01-15T09:17:20.355Z,999.10
2018-01-15T09:18:20.347Z,999.11
2018-01-15T09:19:20.340Z,999.09
2018-01-15T09:20:20.337Z,999.09
2018-01-15T09:21:20.326Z,999.10
2018-01-15T09:22:20.321Z,999.10
2018-01-15T09:23:20.312Z,999.01
2018-01-15T09:24:20.307Z,999.05
2018-01-15T09:25:20.299Z,999.00
2018-01-15T09:26:20.294Z,999.01
2018-01-15T09:27:20.286Z,998.93
2018-01-15T09:28:20.280Z,998.91
2018-01-15T09:29:20.272Z,998.90
2018-01-15T09:30:20.267Z,998.88
2018-01-15T09:31:20.260Z,998.87
2018-01-15T09:32:20.253Z,998.86
2018-01-15T09:33:20.247Z,998.90
2018-01-15T09:34:20.239Z,998.83
2018-01-15T09:35:20.232Z,998.84
2018-01-15T09:36:20.226Z,998.85
2018-01-15T09:37:20.252Z,998.87
2018-01-15T09:38:20.213Z,998.84
2018-01-15T09:39:20.205Z,998.85
2018-01-15T09:40:20.199Z,998.85
2018-01-15T09:41:20.192Z,998.84
2018-01-15T09:42:20.187Z,998.86
2018-01-15T09:43:20.205Z,998.78
2018-01-15T09:44:20.172Z,998.81
2018-01-15T09:45:20.166Z,998.80
2018-01-15T09:46:20.160Z,998.77
2018-01-15T09:47:20.157Z,998.80
2018-01-15T09:48:20.147Z,998.76
2018-01-15T09:49:20.140Z,998.69
2018-01-15T09:50:20.134Z,998.70
2018-01-15T09:51:20.127Z,998.71
2018-01-15T09:52:20.121Z,998.73
2018-01-15T09:53:20.113Z,998.75
2018-01-15T09:54:20.108Z,998.66
2018-01-15T09:55:20.101Z,998.65
2018-01-15T09:56:20.095Z,998.60
2018-01-15T09:57:20.089Z,998.62
2018-01-15T09:58:20.084Z,998.56
2018-01-15T09:59:20.076Z,998.55
2018-01-15T10:00:20.070Z,998.55
2018-01-15T10:01:20.064Z,998.55
2018-01-15T10:02:20.058Z,998.50
2018-01-15T10:03:20.051Z,998.47
2018-01-15T10:04:20.045Z,998.52
2018-01-15T10:05:20.039Z,998.55
2018-01-15T10:06:20.033Z,998.46
2018-01-15T10:07:20.028Z,998.46
2018-01-15T10:08:20.021Z,998.52
2018-01-15T10:09:20.015Z,998.52
2018-01-15T10:10:20.009Z,998.46
2018-01-15T10:11:20.010Z,998.48
2018-01-15T10:12:19.997Z,998.46
2018-01-15T10:13:19.991Z,998.36
2018-01-15T10:14:19.988Z,998.39
2018-01-15T10:15:19.978Z,998.43
2018-01-15T10:16:19.976Z,998.31
2018-01-15T10:17:19.966Z,998.28
2018-01-15T10:18:19.961Z,998.26
2018-01-15T10:19:19.955Z,998.30
2018-01-15T10:20:19.947Z,998.30
2018-01-15T10:21:19.941Z,998.23
2018-01-15T10:22:19.938Z,998.16
2018-01-15T10:23:19.930Z,998.17
2018-01-15T10:24:19.924Z,998.06
2018-01-15T10:25:19.919Z,998.09
2018-01-15T10:26:19.913Z,998.07
2018-01-15T10:27:19.907Z,998.00
2018-01-15T10:28:19.902Z,998.02
2018-01-15T10:29:19.895Z,997.98
2018-01-15T10:30:19.889Z,997.91
2018-01-15T10:31:19.883Z,997.86
2018-01-15T10:32:19.877Z,997.92
2018-01-15T10:33:19.875Z,997.87
2018-01-15T10:34:19.866Z,997.89
2018-01-15T10:35:19.861Z,997.79
2018-01-15T10:36:19.855Z,997.77
2018-01-15T10:37:19.848Z,997.80
2018-01-15T10:38:19.843Z,997.80
2018-01-15T10:39:19.836Z,997.77
2018-01-15T10:40:19.832Z,997.75
2018-01-15T10:41:19.826Z,997.76
2018-01-15T10:42:19.819Z,997.69
2018-01-15T10:43:19.813Z,997.70
2018-01-15T10:44:19.807Z,997.68
2018-01-15T10:45:19.802Z,997.63
2018-01-15T10:46:19.796Z,997.59
2018-01-15T10:47:19.790Z,997.57
2018-01-15T10:48:19.787Z,997.53
2018-01-15T10:49:19.779Z,997.45
2018-01-15T10:50:19.775Z,997.43
2018-01-15T10:51:19.768Z,997.44
2018-01-15T10:52:19.766Z,997.34
2018-01-15T10:53:19.758Z,997.36
2018-01-15T10:54:19.751Z,997.28
2018-01-15T10:55:19.744Z,997.29
2018-01-15T10:56:19.739Z,997.28
2018-01-15T10:57:19.736Z,997.26
2018-01-15T10:58:19.729Z,997.27
2018-01-15T10:59:19.721Z,997.22
2018-01-15T11:00:19.716Z,997.20
2018-01-15T11:01:19.711Z,997.18
2018-01-15T11:02:19.707Z,997.13
2018-01-15T11:03:19.699Z,997.15
2018-01-15T11:04:19.694Z,997.09
2018-01-15T11:05:19.689Z,997.08
2018-01-15T11:06:19.685Z,997.04
2018-01-15T11:07:19.678Z,997.02
2018-01-15T11:08:19.672Z,996.92
2018-01-15T11:09:19.667Z,996.93
2018-01-15T11:10:19.663Z,996.86
2018-01-15T11:11:19.656Z,996.75
2018-01-15T11:12:19.650Z,996.70
2018-01-15T11:13:19.644Z,996.77
2018-01-15T11:14:19.640Z,996.69
2018-01-15T11:15:19.633Z,996.65
2018-01-15T11:16:19.627Z,996.64
2018-01-15T11:17:19.624Z,996.56
2018-01-15T11:18:19.629Z,996.53
2018-01-15T11:19:19.611Z,996.42
2018-01-15T11:20:19.606Z,996.43
2018-01-15T11:21:19.601Z,996.41
2018-01-15T11:22:19.596Z,996.41
2018-01-15T11:23:19.589Z,996.33
2018-01-15T11:24:19.584Z,996.27
2018-01-15T11:25:19.578Z,996.24
2018-01-15T11:26:19.575Z,996.19
2018-01-15T11:27:19.567Z,996.17
2018-01-15T11:28:19.563Z,996.18
2018-01-15T11:29:19.557Z,996.10
2018-01-15T11:30:19.552Z,996.02
2018-01-15T11:31:19.545Z,995.99
2018-01-15T11:32:19.542Z,995.99
2018-01-15T11:33:19.536Z,995.90
2018-01-15T11:34:19.530Z,995.89
2018-01-15T11:35:19.524Z,995.91
2018-01-15T11:36:19.520Z,995.90
2018-01-15T11:37:19.514Z,995.81
2018-01-15T11:38:19.509Z,995.85
2018-01-15T11:39:19.503Z,995.80
2018-01-15T11:40:19.498Z,995.77
2018-01-15T11:41:19.492Z,995.79
2018-01-15T11:42:19.489Z,995.76
2018-01-15T11:43:19.482Z,995.73
2018-01-15T11:44:19.477Z,995.66
2018-01-15T11:45:19.622Z,995.67
2018-01-15T11:46:19.468Z,995.59
2018-01-15T11:47:19.462Z,995.64
2018-01-15T11:48:19.456Z,995.52
2018-01-15T11:49:19.452Z,995.52
2018-01-15T11:50:19.447Z,995.41
2018-01-15T11:51:19.440Z,995.35
2018-01-15T11:52:19.435Z,995.38
2018-01-15T11:53:19.430Z,995.26
2018-01-15T11:54:19.425Z,995.22
2018-01-15T11:55:19.419Z,995.20
2018-01-15T11:56:19.416Z,995.16
2018-01-15T11:57:19.414Z,995.14
2018-01-15T11:58:19.404Z,995.09
2018-01-15T11:59:19.400Z,995.06
2018-01-15T12:00:19.394Z,995.08
2018-01-15T12:01:19.390Z,995.05
2018-01-15T12:02:19.383Z,994.99
2018-01-15T12:03:19.378Z,994.91
2018-01-15T12:04:19.374Z,994.86
2018-01-15T12:05:19.368Z,994.80
2018-01-15T12:06:19.363Z,994.77
2018-01-15T12:07:19.358Z,994.74
2018-01-15T12:08:19.353Z,994.70
2018-01-15T12:09:19.349Z,994.70
2018-01-15T12:10:19.344Z,994.63
2018-01-15T12:11:19.337Z,994.63
2018-01-15T12:12:19.331Z,994.49
2018-01-15T12:13:19.326Z,994.53
2018-01-15T12:14:19.322Z,994.54
2018-01-15T12:15:19.316Z,994.43